Time,TemperatureF,DewpointF,PressureIn,WindDirection,WindDirectionDegrees,WindSpeedMPH,WindSpeedGustMPH,Humidity,HourlyPrecipIn,Conditions,Clouds,dailyrainin,SoftwareType,DateUTC
2013-02-16 00:00:00,45.5,45.5,30.01,SSW,207,2.0,2.0,100,0.00,,---,0.00,VWS V14.00,2013-02-16 05:00:00,
2013-02-16 00:05:00,45.6,45.6,30.01,SSW,206,2.0,2.0,100,0.00,,---,0.00,VWS V14.00,2013-02-16 05:05:00,
2013-02-16 00:10:00,45.6,45.6,30.01,West,272,2.0,3.0,100,0.00,,---,0.00,VWS V14.00,2013-02-16 05:10:00,
2013-02-16 00:15:00,45.6,45.6,30.01,NW,305,2.0,3.0,100,0.00,,---,0.00,VWS V14.00,2013-02-16 05:15:00,
2013-02-16 00:20:00,45.6,45.6,30.01,NW,305,2.0,4.0,100,0.00,,---,0.00,VWS V14.00,2013-02-16 05:20:00,
2013-02-16 00:23:00,45.6,45.6,30.01,NW,308,2.0,4.0,100,0.00,,---,0.00,VWS V14.00,2013-02-16 05:23:00,
2013-02-16 00:28:00,45.6,45.6,30.01,NW,311,2.0,4.0,100,0.00,,---,0.00,VWS V14.00,2013-02-16 05:28:00,
2013-02-16 00:33:00,45.6,45.6,30.01,NW,311,3.0,3.0,100,0.00,,---,0.00,VWS V14.00,2013-02-16 05:33:00,
2013-02-16 00:38:00,45.5,45.5,30.01,NW,311,2.0,4.0,100,0.00,,---,0.00,VWS V14.00,2013-02-16 05:38:00,
2013-02-16 00:43:00,45.5,45.5,30.01,NW,311,3.0,4.0,100,0.00,,---,0.00,VWS V14.00,2013-02-16 05:43:00,
2013-02-16 00:48:00,45.5,45.5,30.01,NW,312,2.0,4.0,100,0.00,,---,0.00,VWS V14.00,2013-02-16 05:48:00,
2013-02-16 00:53:00,45.5,45.5,30.00,NW,312,3.0,4.0,100,0.00,,---,0.00,VWS V14.00,2013-02-16 05:53:00,
2013-02-16 00:58:00,45.4,45.4,30.00,NW,312,3.0,4.0,100,0.00,,---,0.00,VWS V14.00,2013-02-16 05:58:00,
2013-02-16 01:03:00,45.4,45.4,30.00,NW,312,2.0,3.0,100,0.00,,---,0.00,VWS V14.00,2013-02-16 06:03:00,
2013-02-16 01:08:00,45.4,45.4,30.00,NW,312,2.0,3.0,100,0.00,,---,0.00,VWS V14.00,2013-02-16 06:08:00,
2013-02-16 01:13:00,45.4,45.4,30.00,NW,312,2.0,3.0,100,0.00,,---,0.00,VWS V14.00,2013-02-16 06:13:00,
2013-02-16 01:18:00,45.4,45.4,29.99,NW,312,2.0,3.0,100,0.00,,---,0.00,VWS V14.00,2013-02-16 06:18:00,
2013-02-16 01:23:00,45.4,45.4,29.99,NW,312,2.0,3.0,100,0.00,,---,0.00,VWS V14.00,2013-02-16 06:23:00,
2013-02-16 01:28:00,45.3,45.3,29.99,NW,312,2.0,3.0,100,0.00,,---,0.00,VWS V14.00,2013-02-16 06:28:00,
2013-02-16 01:33:00,45.3,45.3,29.99,NW,312,1.0,3.0,100,0.00,,---,0.00,VWS V14.00,2013-02-16 06:33:00,
2013-02-16 01:38:00,45.2,45.2,29.99,NW,312,2.0,3.0,100,0.00,,---,0.00,VWS V14.00,2013-02-16 06:38:00,
2013-02-16 01:43:00,45.2,45.2,29.99,NW,312,1.0,3.0,100,0.00,,---,0.00,VWS V14.00,2013-02-16 06:43:00,
2013-02-16 01:48:00,45.2,45.2,29.98,NW,312,1.0,3.0,100,0.00,,---,0.00,VWS V14.00,2013-02-16 06:48:00,
2013-02-16 01:53:00,45.2,45.2,29.98,NW,312,1.0,3.0,100,0.00,,---,0.00,VWS V14.00,2013-02-16 06:53:00,
2013-02-16 01:58:00,45.2,45.2,29.98,NW,312,1.0,3.0,100,0.00,,---,0.00,VWS V14.00,2013-02-16 06:58:00,
2013-02-16 02:02:00,45.2,45.2,29.98,NW,312,1.0,2.0,100,0.00,,---,0.00,VWS V14.00,2013-02-16 07:02:00,
2013-02-16 02:07:00,45.2,45.2,29.98,NW,312,1.0,2.0,100,0.00,,---,0.00,VWS V14.00,2013-02-16 07:07:00,
2013-02-16 02:12:00,45.3,45.3,29.98,NW,312,1.0,2.0,100,0.00,,---,0.00,VWS V14.00,2013-02-16 07:12:00,
2013-02-16 02:17:00,45.3,45.3,29.97,NW,312,2.0,3.0,100,0.00,,---,0.00,VWS V14.00,2013-02-16 07:17:00,
2013-02-16 02:22:00,45.3,45.3,29.97,NW,312,2.0,3.0,100,0.00,,---,0.00,VWS V14.00,2013-02-16 07:22:00,
2013-02-16 02:27:00,45.3,45.3,29.97,NW,312,2.0,3.0,100,0.00,,---,0.00,VWS V14.00,2013-02-16 07:27:00,
2013-02-16 02:32:00,45.3,45.3,29.97,NW,312,2.0,3.0,100,0.00,,---,0.00,VWS V14.00,2013-02-16 07:32:00,
2013-02-16 02:37:00,45.3,45.3,29.97,NW,312,3.0,4.0,100,0.00,,---,0.00,VWS V14.00,2013-02-16 07:37:00,
2013-02-16 02:42:00,45.3,45.3,29.97,NW,312,3.0,4.0,100,0.00,,---,0.00,VWS V14.00,2013-02-16 07:42:00,
2013-02-16 02:47:00,45.3,45.3,29.97,NW,311,3.0,4.0,100,0.00,,---,0.00,VWS V14.00,2013-02-16 07:47:00,
2013-02-16 02:52:00,45.5,45.5,29.97,NW,312,2.0,4.0,100,0.00,,---,0.00,VWS V14.00,2013-02-16 07:52:00,
2013-02-16 02:57:00,45.7,45.7,29.97,NW,312,2.0,4.0,100,0.00,,---,0.00,VWS V14.00,2013-02-16 07:57:00,
2013-02-16 03:02:00,45.7,45.7,29.97,NW,311,1.0,2.0,100,0.00,,---,0.00,VWS V14.00,2013-02-16 08:02:00,
2013-02-16 03:07:00,45.7,45.7,29.96,NW,312,1.0,2.0,100,0.00,,---,0.00,VWS V14.00,2013-02-16 08:07:00,
2013-02-16 03:12:00,45.7,45.7,29.96,NW,312,2.0,3.0,100,0.00,,---,0.00,VWS V14.00,2013-02-16 08:12:00,
2013-02-16 03:17:00,45.7,45.7,29.96,NW,312,2.0,3.0,100,0.00,,---,0.00,VWS V14.00,2013-02-16 08:17:00,
2013-02-16 03:22:00,45.7,45.7,29.96,NW,312,2.0,3.0,100,0.00,,---,0.00,VWS V14.00,2013-02-16 08:22:00,
2013-02-16 03:27:00,45.6,45.6,29.96,NW,312,3.0,4.0,100,0.00,,---,0.00,VWS V14.00,2013-02-16 08:27:00,
2013-02-16 03:32:00,45.6,45.6,29.96,NW,307,3.0,4.0,100,0.00,,---,0.00,VWS V14.00,2013-02-16 08:32:00,
2013-02-16 03:37:00,45.7,45.7,29.96,WNW,303,6.0,6.0,100,0.00,,---,0.00,VWS V14.00,2013-02-16 08:37:00,
2013-02-16 03:42:00,45.8,45.8,29.96,NW,304,3.0,6.0,100,0.00,,---,0.00,VWS V14.00,2013-02-16 08:42:00,
2013-02-16 03:47:00,45.8,45.8,29.96,WNW,302,5.0,6.0,100,0.00,,---,0.00,VWS V14.00,2013-02-16 08:47:00,
2013-02-16 03:52:00,45.9,45.9,29.96,WNW,296,5.0,7.0,100,0.00,,---,0.00,VWS V14.00,2013-02-16 08:52:00,
2013-02-16 03:57:00,46.1,46.1,29.95,WNW,295,7.0,8.0,100,0.00,,---,0.00,VWS V14.00,2013-02-16 08:57:00,
2013-02-16 04:02:00,46.3,46.3,29.95,WNW,300,5.0,8.0,100,0.00,,---,0.00,VWS V14.00,2013-02-16 09:02:00,
2013-02-16 04:07:00,46.4,46.4,29.97,NW,321,19.0,21.0,100,0.00,,---,0.00,VWS V14.00,2013-02-16 09:07:00,
2013-02-16 04:12:00,46.1,46.1,29.97,NW,311,14.0,21.0,100,0.00,,---,0.00,VWS V14.00,2013-02-16 09:12:00,
2013-02-16 04:17:00,45.8,45.8,29.96,NW,318,11.0,21.0,100,0.00,,---,0.00,VWS V14.00,2013-02-16 09:17:00,
2013-02-16 04:22:00,45.6,45.6,29.97,NW,324,11.0,21.0,100,0.00,,---,0.00,VWS V14.00,2013-02-16 09:22:00,
2013-02-16 04:27:00,45.3,45.3,29.96,NW,319,11.0,21.0,100,0.00,,---,0.00,VWS V14.00,2013-02-16 09:27:00,
2013-02-16 04:32:00,45.1,45.1,29.96,NW,317,8.0,9.0,100,0.00,,---,0.00,VWS V14.00,2013-02-16 09:32:00,
2013-02-16 04:37:00,44.9,44.9,29.96,NW,314,7.0,10.0,100,0.00,,---,0.00,VWS V14.00,2013-02-16 09:37:00,
2013-02-16 04:42:00,44.7,44.7,29.96,NNW,328,10.0,10.0,100,0.00,,---,0.00,VWS V14.00,2013-02-16 09:42:00,
2013-02-16 04:47:00,44.5,44.5,29.95,NW,325,7.0,11.0,100,0.00,,---,0.00,VWS V14.00,2013-02-16 09:47:00,
2013-02-16 04:52:00,44.4,44.4,29.96,NW,317,7.0,11.0,100,0.00,,---,0.00,VWS V14.00,2013-02-16 09:52:00,
2013-02-16 04:57:00,44.3,44.3,29.95,NNW,327,4.0,11.0,100,0.00,,---,0.00,VWS V14.00,2013-02-16 09:57:00,
2013-02-16 05:02:00,44.2,44.2,29.95,NW,324,2.0,4.0,100,0.00,,---,0.00,VWS V14.00,2013-02-16 10:02:00,
2013-02-16 05:07:00,44.0,44.0,29.95,NW,317,6.0,8.0,100,0.00,,---,0.00,VWS V14.00,2013-02-16 10:07:00,
2013-02-16 05:12:00,43.9,43.9,29.95,NW,325,2.0,8.0,100,0.00,,---,0.00,VWS V14.00,2013-02-16 10:12:00,
2013-02-16 05:17:00,43.8,43.8,29.95,NW,323,2.0,8.0,100,0.00,,---,0.00,VWS V14.00,2013-02-16 10:17:00,
2013-02-16 05:22:00,43.7,43.7,29.95,NW,323,2.0,8.0,100,0.00,,---,0.00,VWS V14.00,2013-02-16 10:22:00,
2013-02-16 05:27:00,43.7,43.7,29.94,NW,322,2.0,8.0,100,0.00,,---,0.00,VWS V14.00,2013-02-16 10:27:00,
2013-02-16 05:32:00,43.6,43.6,29.94,NW,326,7.0,8.0,100,0.00,,---,0.00,VWS V14.00,2013-02-16 10:32:00,
2013-02-16 05:37:00,43.5,43.5,29.94,NW,325,2.0,8.0,100,0.00,,---,0.00,VWS V14.00,2013-02-16 10:37:00,
2013-02-16 05:42:00,43.5,43.5,29.93,North,0,1.0,8.0,100,0.00,,---,0.00,VWS V14.00,2013-02-16 10:42:00,
2013-02-16 05:47:00,43.4,43.4,29.93,North,349,2.0,8.0,100,0.00,,---,0.00,VWS V14.00,2013-02-16 10:47:00,
2013-02-16 05:52:00,43.3,43.3,29.92,North,355,6.0,9.0,100,0.00,,---,0.00,VWS V14.00,2013-02-16 10:52:00,
2013-02-16 05:57:00,43.3,43.3,29.93,North,10,9.0,10.0,100,0.00,,---,0.00,VWS V14.00,2013-02-16 10:57:00,
2013-02-16 06:02:00,43.2,43.2,29.93,North,0,10.0,11.0,100,0.00,,---,0.00,VWS V14.00,2013-02-16 11:02:00,
2013-02-16 06:07:00,43.2,43.2,29.93,North,0,7.0,12.0,100,0.00,,---,0.00,VWS V14.00,2013-02-16 11:07:00,
2013-02-16 06:12:00,43.1,43.1,29.92,North,4,9.0,12.0,100,0.00,,---,0.00,VWS V14.00,2013-02-16 11:12:00,
2013-02-16 06:17:00,43.2,43.2,29.93,North,3,9.0,12.0,100,0.00,,---,0.00,VWS V14.00,2013-02-16 11:17:00,
2013-02-16 06:22:00,43.2,43.2,29.93,North,11,5.0,12.0,100,0.00,,---,0.00,VWS V14.00,2013-02-16 11:22:00,
2013-02-16 06:27:00,43.1,43.1,29.93,NNE,21,5.0,12.0,100,0.00,,---,0.00,VWS V14.00,2013-02-16 11:27:00,
2013-02-16 06:32:00,43.1,43.1,29.93,North,6,3.0,6.0,100,0.00,,---,0.00,VWS V14.00,2013-02-16 11:32:00,
2013-02-16 06:37:00,43.0,43.0,29.94,North,1,2.0,6.0,100,0.00,,---,0.00,VWS V14.00,2013-02-16 11:37:00,
2013-02-16 06:42:00,42.9,42.9,29.94,North,3,1.0,6.0,100,0.00,,---,0.00,VWS V14.00,2013-02-16 11:42:00,
2013-02-16 06:47:00,42.9,42.9,29.93,NNE,18,1.0,6.0,100,0.00,,---,0.00,VWS V14.00,2013-02-16 11:47:00,
2013-02-16 06:52:00,42.8,42.8,29.94,NNE,32,1.0,6.0,100,0.00,,---,0.00,VWS V14.00,2013-02-16 11:52:00,
2013-02-16 06:57:00,42.7,42.7,29.93,NNE,14,1.0,6.0,100,0.00,,---,0.00,VWS V14.00,2013-02-16 11:57:00,
2013-02-16 07:02:00,42.7,42.7,29.93,North,0,1.0,3.0,100,0.00,,---,0.00,VWS V14.00,2013-02-16 12:02:00,
2013-02-16 07:07:00,42.6,42.6,29.93,North,0,5.0,7.0,100,0.00,,---,0.00,VWS V14.00,2013-02-16 12:07:00,
2013-02-16 07:12:00,42.5,42.5,29.94,North,0,7.0,7.0,100,0.00,,---,0.00,VWS V14.00,2013-02-16 12:12:00,
2013-02-16 07:17:00,42.5,42.5,29.94,North,10,5.0,7.0,100,0.00,,---,0.00,VWS V14.00,2013-02-16 12:17:00,
2013-02-16 07:22:00,42.5,42.5,29.94,North,4,9.0,10.0,100,0.00,,---,0.00,VWS V14.00,2013-02-16 12:22:00,
2013-02-16 07:27:00,42.5,42.5,29.94,NNE,13,6.0,10.0,100,0.00,,---,0.00,VWS V14.00,2013-02-16 12:27:00,
2013-02-16 07:32:00,42.5,42.5,29.94,North,4,8.0,10.0,100,0.00,,---,0.00,VWS V14.00,2013-02-16 12:32:00,
2013-02-16 07:37:00,42.5,42.5,29.93,NNE,30,8.0,11.0,100,0.00,,---,0.00,VWS V14.00,2013-02-16 12:37:00,
2013-02-16 07:42:00,42.5,42.5,29.93,NNE,18,8.0,12.0,100,0.00,,---,0.00,VWS V14.00,2013-02-16 12:42:00,
2013-02-16 07:47:00,42.5,42.5,29.93,NNE,30,5.0,12.0,100,0.00,,---,0.00,VWS V14.00,2013-02-16 12:47:00,
2013-02-16 07:52:00,42.5,42.5,29.93,NNE,24,11.0,12.0,100,0.00,,---,0.00,VWS V14.00,2013-02-16 12:52:00,
2013-02-16 07:57:00,42.7,42.7,29.93,NNE,18,7.0,12.0,100,0.00,,---,0.00,VWS V14.00,2013-02-16 12:57:00,
2013-02-16 08:02:00,42.7,42.7,29.93,NNE,22,10.0,12.0,100,0.00,,---,0.00,VWS V14.00,2013-02-16 13:02:00,
2013-02-16 08:07:00,42.8,42.8,29.93,NNE,28,9.0,12.0,100,0.00,,---,0.00,VWS V14.00,2013-02-16 13:07:00,
2013-02-16 08:12:00,42.9,42.9,29.93,NNE,21,12.0,12.0,100,0.00,,---,0.00,VWS V14.00,2013-02-16 13:12:00,
2013-02-16 08:17:00,43.1,43.1,29.93,NNE,32,4.0,12.0,100,0.00,,---,0.00,VWS V14.00,2013-02-16 13:17:00,
2013-02-16 08:22:00,43.2,43.2,29.93,NNE,25,8.0,12.0,100,0.00,,---,0.00,VWS V14.00,2013-02-16 13:22:00,
2013-02-16 08:27:00,43.3,43.3,29.94,NNE,31,9.0,12.0,100,0.00,,---,0.00,VWS V14.00,2013-02-16 13:27:00,
2013-02-16 08:32:00,43.5,43.5,29.93,NNE,24,4.0,8.0,100,0.00,,---,0.00,VWS V14.00,2013-02-16 13:32:00,
2013-02-16 08:37:00,43.6,43.6,29.93,NE,44,4.0,10.0,100,0.00,,---,0.00,VWS V14.00,2013-02-16 13:37:00,
2013-02-16 08:42:00,43.7,43.7,29.93,NE,41,3.0,10.0,100,0.00,,---,0.00,VWS V14.00,2013-02-16 13:42:00,
2013-02-16 08:47:00,43.9,43.9,29.93,NE,36,6.0,10.0,100,0.00,,---,0.00,VWS V14.00,2013-02-16 13:47:00,
2013-02-16 08:52:00,44.1,44.1,29.92,NE,47,2.0,11.0,100,0.00,,---,0.00,VWS V14.00,2013-02-16 13:52:00,
2013-02-16 08:57:00,44.3,44.3,29.92,NE,45,6.0,12.0,100,0.00,,---,0.00,VWS V14.00,2013-02-16 13:57:00,
2013-02-16 09:02:00,44.5,44.5,29.92,NE,38,7.0,12.0,100,0.00,,---,0.00,VWS V14.00,2013-02-16 14:02:00,
2013-02-16 09:07:00,44.7,44.7,29.91,NE,44,10.0,12.0,100,0.00,,---,0.00,VWS V14.00,2013-02-16 14:07:00,
2013-02-16 09:12:00,44.9,44.9,29.91,NE,42,10.0,13.0,100,0.00,,---,0.00,VWS V14.00,2013-02-16 14:12:00,
2013-02-16 09:17:00,45.1,45.1,29.91,NE,47,2.0,13.0,100,0.00,,---,0.00,VWS V14.00,2013-02-16 14:17:00,
2013-02-16 09:22:00,45.3,45.3,29.91,NE,51,5.0,13.0,100,0.00,,---,0.00,VWS V14.00,2013-02-16 14:22:00,
2013-02-16 09:27:00,45.4,45.4,29.91,NE,49,8.0,14.0,100,0.00,,---,0.00,VWS V14.00,2013-02-16 14:27:00,
2013-02-16 09:32:00,45.6,45.6,29.91,NE,49,9.0,11.0,100,0.00,,---,0.00,VWS V14.00,2013-02-16 14:32:00,
2013-02-16 09:37:00,45.7,45.7,29.91,NE,51,3.0,11.0,100,0.00,,---,0.00,VWS V14.00,2013-02-16 14:37:00,
2013-02-16 09:42:00,45.9,45.9,29.91,NE,39,9.0,15.0,100,0.00,,---,0.00,VWS V14.00,2013-02-16 14:42:00,
2013-02-16 09:47:00,46.1,46.1,29.91,NNE,24,9.0,15.0,100,0.00,,---,0.00,VWS V14.00,2013-02-16 14:47:00,
2013-02-16 09:52:00,46.3,46.3,29.91,NE,34,11.0,15.0,100,0.00,,---,0.00,VWS V14.00,2013-02-16 14:52:00,
2013-02-16 09:57:00,46.4,46.4,29.92,NNE,28,14.0,15.0,100,0.00,,---,0.00,VWS V14.00,2013-02-16 14:57:00,
2013-02-16 10:02:00,46.5,46.5,29.91,NNE,24,14.0,14.0,100,0.00,,---,0.00,VWS V14.00,2013-02-16 15:02:00,
2013-02-16 10:07:00,46.5,46.5,29.91,NNE,28,9.0,16.0,100,0.00,,---,0.00,VWS V14.00,2013-02-16 15:07:00,
2013-02-16 10:12:00,46.6,46.6,29.92,NNE,19,10.0,16.0,100,0.00,,---,0.00,VWS V14.00,2013-02-16 15:12:00,
2013-02-16 10:17:00,46.7,46.7,29.91,NE,35,9.0,16.0,100,0.00,,---,0.00,VWS V14.00,2013-02-16 15:17:00,
2013-02-16 10:22:00,46.8,46.8,29.91,NE,48,10.0,16.0,100,0.00,,---,0.00,VWS V14.00,2013-02-16 15:22:00,
2013-02-16 10:27:00,46.9,46.9,29.91,NNE,31,9.0,16.0,100,0.00,,---,0.00,VWS V14.00,2013-02-16 15:27:00,
2013-02-16 10:32:00,46.9,46.9,29.90,NE,35,8.0,12.0,100,0.00,,---,0.00,VWS V14.00,2013-02-16 15:32:00,
2013-02-16 10:37:00,47.0,47.0,29.90,NE,48,5.0,13.0,100,0.00,,---,0.00,VWS V14.00,2013-02-16 15:37:00,
2013-02-16 10:42:00,47.1,47.1,29.90,NNE,29,11.0,15.0,100,0.00,,---,0.00,VWS V14.00,2013-02-16 15:42:00,
2013-02-16 10:47:00,47.2,47.2,29.89,NE,50,5.0,15.0,100,0.00,,---,0.00,VWS V14.00,2013-02-16 15:47:00,
2013-02-16 10:52:00,47.2,47.2,29.90,NE,47,8.0,15.0,100,0.00,,---,0.00,VWS V14.00,2013-02-16 15:52:00,
2013-02-16 10:57:00,47.2,47.2,29.89,NE,48,7.0,15.0,100,0.00,,---,0.00,VWS V14.00,2013-02-16 15:57:00,
2013-02-16 11:02:00,47.3,47.3,29.89,NE,46,5.0,12.0,100,0.00,,---,0.00,VWS V14.00,2013-02-16 16:02:00,
2013-02-16 11:07:00,47.4,47.4,29.89,ENE,62,3.0,12.0,100,0.00,,---,0.00,VWS V14.00,2013-02-16 16:07:00,
2013-02-16 11:12:00,47.6,47.6,29.89,ENE,60,3.0,12.0,100,0.00,,---,0.00,VWS V14.00,2013-02-16 16:12:00,
2013-02-16 11:17:00,47.6,47.6,29.88,NE,43,9.0,12.0,100,0.00,,---,0.00,VWS V14.00,2013-02-16 16:17:00,
2013-02-16 11:22:00,47.7,47.7,29.88,NE,43,6.0,12.0,100,0.00,,---,0.00,VWS V14.00,2013-02-16 16:22:00,
2013-02-16 11:27:00,47.8,47.8,29.88,NE,38,11.0,13.0,100,0.00,,---,0.00,VWS V14.00,2013-02-16 16:27:00,
2013-02-16 11:32:00,47.9,47.9,29.88,NE,39,9.0,12.0,100,0.00,,---,0.00,VWS V14.00,2013-02-16 16:32:00,
2013-02-16 11:37:00,48.0,48.0,29.88,NE,35,6.0,12.0,100,0.00,,---,0.00,VWS V14.00,2013-02-16 16:37:00,
2013-02-16 11:42:00,48.1,48.1,29.87,NE,45,5.0,15.0,100,0.00,,---,0.00,VWS V14.00,2013-02-16 16:42:00,
2013-02-16 11:47:00,48.3,48.3,29.88,NE,42,7.0,15.0,100,0.00,,---,0.00,VWS V14.00,2013-02-16 16:47:00,
2013-02-16 11:52:00,48.4,48.4,29.88,NNE,12,7.0,15.0,100,0.00,,---,0.00,VWS V14.00,2013-02-16 16:52:00,
2013-02-16 11:57:00,48.5,48.2,29.87,NNE,19,7.0,15.0,99,0.00,,---,0.00,VWS V14.00,2013-02-16 16:57:00,
2013-02-16 12:02:00,48.7,48.7,29.87,NNE,18,9.0,13.0,100,0.00,,---,0.00,VWS V14.00,2013-02-16 17:02:00,
2013-02-16 12:07:00,48.8,48.5,29.87,NNE,23,11.0,13.0,99,0.00,,---,0.00,VWS V14.00,2013-02-16 17:07:00,
2013-02-16 12:12:00,48.9,48.4,29.86,NE,41,8.0,13.0,98,0.00,,---,0.00,VWS V14.00,2013-02-16 17:12:00,
2013-02-16 12:17:00,49.0,48.7,29.86,NNE,30,9.0,13.0,99,0.00,,---,0.00,VWS V14.00,2013-02-16 17:17:00,
2013-02-16 12:22:00,49.0,48.2,29.85,NE,54,3.0,13.0,97,0.00,,---,0.00,VWS V14.00,2013-02-16 17:22:00,
2013-02-16 12:27:00,49.1,48.6,29.85,NNE,15,6.0,13.0,98,0.00,,---,0.00,VWS V14.00,2013-02-16 17:27:00,
2013-02-16 12:32:00,49.2,49.2,29.85,NNE,31,9.0,12.0,100,0.00,,---,0.00,VWS V14.00,2013-02-16 17:32:00,
2013-02-16 12:37:00,49.3,49.3,29.85,North,0,8.0,13.0,100,0.00,,---,0.00,VWS V14.00,2013-02-16 17:37:00,
2013-02-16 12:42:00,49.3,49.0,29.84,NE,37,4.0,13.0,99,0.00,,---,0.00,VWS V14.00,2013-02-16 17:42:00,
2013-02-16 12:47:00,49.3,48.2,29.84,NNE,18,7.0,13.0,96,0.00,,---,0.00,VWS V14.00,2013-02-16 17:47:00,
2013-02-16 12:52:00,49.4,48.0,29.83,NE,54,5.0,13.0,95,0.00,,---,0.00,VWS V14.00,2013-02-16 17:52:00,
2013-02-16 12:57:00,49.4,48.0,29.83,NE,36,10.0,13.0,95,0.00,,---,0.00,VWS V14.00,2013-02-16 17:57:00,
2013-02-16 13:02:00,49.4,48.0,29.82,NNE,15,4.0,9.0,95,0.00,,---,0.00,VWS V14.00,2013-02-16 18:02:00,
2013-02-16 13:07:00,49.5,48.1,29.81,NE,36,6.0,10.0,95,0.00,,---,0.00,VWS V14.00,2013-02-16 18:07:00,
2013-02-16 13:12:00,49.7,48.3,29.81,NE,56,3.0,10.0,95,0.00,,---,0.00,VWS V14.00,2013-02-16 18:12:00,
2013-02-16 13:17:00,49.9,48.2,29.81,NE,35,6.0,10.0,94,0.00,,---,0.00,VWS V14.00,2013-02-16 18:17:00,
2013-02-16 13:22:00,50.1,48.4,29.81,NNE,24,10.0,10.0,94,0.00,,---,0.00,VWS V14.00,2013-02-16 18:22:00,
2013-02-16 13:27:00,50.2,48.8,29.80,NNE,18,3.0,10.0,95,0.00,,---,0.00,VWS V14.00,2013-02-16 18:27:00,
2013-02-16 13:32:00,50.3,48.6,29.80,North,6,9.0,12.0,94,0.00,,---,0.00,VWS V14.00,2013-02-16 18:32:00,
2013-02-16 13:37:00,50.3,48.6,29.80,North,6,14.0,14.0,94,0.00,,---,0.00,VWS V14.00,2013-02-16 18:37:00,
2013-02-16 13:42:00,50.1,48.4,29.80,North,351,9.0,15.0,94,0.00,,---,0.00,VWS V14.00,2013-02-16 18:42:00,
2013-02-16 13:47:00,50.0,48.3,29.79,NNE,19,11.0,15.0,94,0.00,,---,0.00,VWS V14.00,2013-02-16 18:47:00,
2013-02-16 13:52:00,50.0,48.3,29.79,NNE,28,11.0,15.0,94,0.00,,---,0.00,VWS V14.00,2013-02-16 18:52:00,
2013-02-16 13:57:00,50.0,48.3,29.78,North,5,11.0,15.0,94,0.00,,---,0.00,VWS V14.00,2013-02-16 18:57:00,
2013-02-16 14:02:00,49.9,48.0,29.78,North,11,9.0,12.0,93,0.00,,---,0.00,VWS V14.00,2013-02-16 19:02:00,
2013-02-16 14:07:00,49.7,47.8,29.78,NE,36,6.0,12.0,93,0.00,,---,0.00,VWS V14.00,2013-02-16 19:07:00,
2013-02-16 14:12:00,49.7,47.5,29.77,NNE,18,9.0,13.0,92,0.00,,---,0.00,VWS V14.00,2013-02-16 19:12:00,
2013-02-16 14:17:00,49.8,47.9,29.77,North,0,9.0,13.0,93,0.00,,---,0.00,VWS V14.00,2013-02-16 19:17:00,
2013-02-16 14:22:00,49.7,47.5,29.76,NE,45,5.0,13.0,92,0.00,,---,0.00,VWS V14.00,2013-02-16 19:22:00,
2013-02-16 14:27:00,49.7,47.5,29.77,NNE,24,8.0,13.0,92,0.00,,---,0.00,VWS V14.00,2013-02-16 19:27:00,
2013-02-16 14:32:00,49.6,47.1,29.76,NNE,15,6.0,8.0,91,0.00,,---,0.00,VWS V14.00,2013-02-16 19:32:00,
2013-02-16 14:37:00,49.6,47.4,29.76,NNE,33,8.0,10.0,92,0.00,,---,0.00,VWS V14.00,2013-02-16 19:37:00,
2013-02-16 14:42:00,49.7,47.8,29.76,NNE,17,8.0,12.0,93,0.00,,---,0.00,VWS V14.00,2013-02-16 19:42:00,
2013-02-16 14:47:00,49.7,47.5,29.75,North,6,9.0,12.0,92,0.00,,---,0.00,VWS V14.00,2013-02-16 19:47:00,
2013-02-16 14:52:00,49.8,47.6,29.75,NE,34,2.0,12.0,92,0.00,,---,0.00,VWS V14.00,2013-02-16 19:52:00,
2013-02-16 14:57:00,49.8,47.9,29.75,NNE,14,6.0,12.0,93,0.00,,---,0.00,VWS V14.00,2013-02-16 19:57:00,
2013-02-16 15:02:00,49.8,47.6,29.75,NNE,19,5.0,9.0,92,0.00,,---,0.00,VWS V14.00,2013-02-16 20:02:00,
2013-02-16 15:07:00,49.9,47.7,29.74,NE,34,5.0,9.0,92,0.00,,---,0.00,VWS V14.00,2013-02-16 20:07:00,
2013-02-16 15:12:00,49.9,47.4,29.74,NNE,22,12.0,13.0,91,0.00,,---,0.00,VWS V14.00,2013-02-16 20:12:00,
2013-02-16 15:17:00,49.8,47.3,29.74,NE,34,10.0,13.0,91,0.00,,---,0.00,VWS V14.00,2013-02-16 20:17:00,
2013-02-16 15:22:00,49.8,47.3,29.74,NNE,12,4.0,13.0,91,0.00,,---,0.00,VWS V14.00,2013-02-16 20:22:00,
2013-02-16 15:27:00,49.8,47.3,29.74,North,6,5.0,13.0,91,0.00,,---,0.00,VWS V14.00,2013-02-16 20:27:00,
2013-02-16 15:32:00,49.8,47.6,29.73,NNE,27,9.0,10.0,92,0.00,,---,0.00,VWS V14.00,2013-02-16 20:32:00,
2013-02-16 15:37:00,49.9,47.4,29.73,NNE,33,11.0,13.0,91,0.00,,---,0.00,VWS V14.00,2013-02-16 20:37:00,
2013-02-16 15:42:00,49.8,47.3,29.73,NNE,18,9.0,13.0,91,0.00,,---,0.00,VWS V14.00,2013-02-16 20:42:00,
2013-02-16 15:47:00,49.7,46.9,29.73,NNE,31,5.0,13.0,90,0.00,,---,0.00,VWS V14.00,2013-02-16 20:47:00,
2013-02-16 15:52:00,49.6,46.8,29.73,North,2,9.0,13.0,90,0.00,,---,0.00,VWS V14.00,2013-02-16 20:52:00,
2013-02-16 15:57:00,49.6,47.4,29.73,North,4,12.0,13.0,92,0.00,,---,0.00,VWS V14.00,2013-02-16 20:57:00,
2013-02-16 16:02:00,49.6,47.1,29.74,North,2,10.0,12.0,91,0.00,,---,0.00,VWS V14.00,2013-02-16 21:02:00,
2013-02-16 16:07:00,49.5,47.0,29.73,NNE,12,6.0,14.0,91,0.00,,---,0.00,VWS V14.00,2013-02-16 21:07:00,
2013-02-16 16:12:00,49.3,46.5,29.73,North,5,8.0,14.0,90,0.00,,---,0.00,VWS V14.00,2013-02-16 21:12:00,
2013-02-16 16:17:00,49.2,46.1,29.73,NNE,20,7.0,14.0,89,0.00,,---,0.00,VWS V14.00,2013-02-16 21:17:00,
2013-02-16 16:22:00,49.0,45.9,29.72,NNE,15,12.0,15.0,89,0.00,,---,0.00,VWS V14.00,2013-02-16 21:22:00,
2013-02-16 16:27:00,48.9,45.8,29.73,North,4,12.0,15.0,89,0.00,,---,0.00,VWS V14.00,2013-02-16 21:27:00,
2013-02-16 16:32:00,48.9,45.8,29.73,North,4,10.0,12.0,89,0.00,,---,0.00,VWS V14.00,2013-02-16 21:32:00,
2013-02-16 16:37:00,48.9,46.4,29.73,North,351,10.0,12.0,91,0.00,,---,0.00,VWS V14.00,2013-02-16 21:37:00,
2013-02-16 16:42:00,48.8,46.3,29.73,NNW,346,8.0,13.0,91,0.00,,---,0.00,VWS V14.00,2013-02-16 21:42:00,
2013-02-16 16:47:00,48.8,46.9,29.73,North,352,10.0,13.0,93,0.00,,---,0.00,VWS V14.00,2013-02-16 21:47:00,
2013-02-16 16:52:00,48.7,46.8,29.73,North,0,9.0,13.0,93,0.00,,---,0.00,VWS V14.00,2013-02-16 21:52:00,
2013-02-16 16:57:00,48.6,47.0,29.72,North,356,12.0,16.0,94,0.00,,---,0.00,VWS V14.00,2013-02-16 21:57:00,
2013-02-16 17:02:00,48.3,47.2,29.73,North,354,11.0,17.0,96,0.00,,---,0.00,VWS V14.00,2013-02-16 22:02:00,
2013-02-16 17:07:00,47.8,47.0,29.73,North,350,11.0,17.0,97,0.00,,---,0.00,VWS V14.00,2013-02-16 22:07:00,
2013-02-16 17:12:00,47.4,47.1,29.73,NNW,339,14.0,17.0,99,0.00,,---,0.00,VWS V14.00,2013-02-16 22:12:00,
2013-02-16 17:17:00,46.8,46.5,29.74,NNW,330,22.0,25.0,99,0.00,,---,0.00,VWS V14.00,2013-02-16 22:17:00,
2013-02-16 17:22:00,46.2,46.2,29.75,NNW,336,20.0,25.0,100,0.00,,---,0.00,VWS V14.00,2013-02-16 22:22:00,
2013-02-16 17:27:00,45.4,45.1,29.76,NNW,327,24.0,27.0,99,0.01,,---,0.01,VWS V14.00,2013-02-16 22:27:00,
2013-02-16 17:32:00,44.7,44.7,29.77,NW,326,21.0,25.0,100,0.02,,---,0.02,VWS V14.00,2013-02-16 22:32:00,
2013-02-16 17:37:00,44.2,44.2,29.77,NNW,335,24.0,31.0,100,0.02,,---,0.02,VWS V14.00,2013-02-16 22:37:00,
2013-02-16 17:42:00,43.7,43.7,29.78,NW,323,22.0,31.0,100,0.03,,---,0.03,VWS V14.00,2013-02-16 22:42:00,
2013-02-16 17:47:00,42.9,42.6,29.78,NNW,332,18.0,31.0,99,0.02,,---,0.03,VWS V14.00,2013-02-16 22:47:00,
2013-02-16 17:52:00,42.4,42.4,29.78,NNW,333,19.0,31.0,100,0.03,,---,0.04,VWS V14.00,2013-02-16 22:52:00,
2013-02-16 17:57:00,41.9,41.9,29.78,NNW,343,26.0,31.0,100,0.03,,---,0.04,VWS V14.00,2013-02-16 22:57:00,
2013-02-16 18:02:00,41.4,41.4,29.80,NNW,340,13.0,26.0,100,0.03,,---,0.04,VWS V14.00,2013-02-16 23:02:00,
2013-02-16 18:07:00,41.0,41.0,29.77,North,357,20.0,31.0,100,0.02,,---,0.04,VWS V14.00,2013-02-16 23:07:00,
2013-02-16 18:12:00,40.6,40.6,29.79,NNW,343,23.0,32.0,100,0.02,,---,0.04,VWS V14.00,2013-02-16 23:12:00,
2013-02-16 18:17:00,40.4,40.4,29.78,North,354,22.0,32.0,100,0.02,,---,0.04,VWS V14.00,2013-02-16 23:17:00,
2013-02-16 18:22:00,40.1,40.1,29.78,North,1,19.0,32.0,100,0.02,,---,0.04,VWS V14.00,2013-02-16 23:22:00,
2013-02-16 18:27:00,39.9,39.9,29.79,North,350,17.0,32.0,100,0.02,,---,0.04,VWS V14.00,2013-02-16 23:27:00,
2013-02-16 18:32:00,39.7,39.7,29.79,North,356,20.0,26.0,100,0.02,,---,0.04,VWS V14.00,2013-02-16 23:32:00,
2013-02-16 18:37:00,39.5,39.5,29.79,North,353,21.0,26.0,100,0.01,,---,0.04,VWS V14.00,2013-02-16 23:37:00,
2013-02-16 18:42:00,39.4,39.4,29.80,North,349,14.0,26.0,100,0.01,,---,0.04,VWS V14.00,2013-02-16 23:42:00,
2013-02-16 18:47:00,39.5,39.5,29.81,North,2,12.0,26.0,100,0.01,,---,0.04,VWS V14.00,2013-02-16 23:47:00,
2013-02-16 18:52:00,39.5,39.5,29.82,NNW,332,13.0,26.0,100,0.02,,---,0.05,VWS V14.00,2013-02-16 23:52:00,
2013-02-16 18:57:00,39.4,39.4,29.82,NNW,336,14.0,26.0,100,0.02,,---,0.05,VWS V14.00,2013-02-16 23:57:00,
2013-02-16 19:02:00,39.3,39.3,29.82,NNW,341,17.0,21.0,100,0.02,,---,0.05,VWS V14.00,2013-02-17 00:02:00,
2013-02-16 19:07:00,39.3,39.3,29.82,NNW,347,21.0,25.0,100,0.02,,---,0.05,VWS V14.00,2013-02-17 00:07:00,
2013-02-16 19:12:00,39.2,39.2,29.81,NNW,345,10.0,25.0,100,0.01,,---,0.05,VWS V14.00,2013-02-17 00:12:00,
2013-02-16 19:17:00,39.1,39.1,29.82,NNW,338,18.0,25.0,100,0.01,,---,0.05,VWS V14.00,2013-02-17 00:17:00,
2013-02-16 19:22:00,38.9,38.9,29.83,NNW,329,13.0,25.0,100,0.01,,---,0.05,VWS V14.00,2013-02-17 00:22:00,
2013-02-16 19:27:00,38.7,38.7,29.83,NNW,333,6.0,25.0,100,0.01,,---,0.05,VWS V14.00,2013-02-17 00:27:00,
2013-02-16 19:32:00,38.7,38.7,29.83,NNW,340,11.0,15.0,100,0.01,,---,0.05,VWS V14.00,2013-02-17 00:32:00,
2013-02-16 19:37:00,38.6,38.6,29.83,NNW,347,14.0,17.0,100,0.01,,---,0.05,VWS V14.00,2013-02-17 00:37:00,
2013-02-16 19:42:00,38.5,38.5,29.83,North,350,12.0,17.0,100,0.01,,---,0.05,VWS V14.00,2013-02-17 00:42:00,
2013-02-16 19:47:00,38.5,38.5,29.83,North,355,15.0,18.0,100,0.01,,---,0.05,VWS V14.00,2013-02-17 00:47:00,
2013-02-16 19:52:00,38.3,38.3,29.83,NNW,329,16.0,18.0,100,0.01,,---,0.05,VWS V14.00,2013-02-17 00:52:00,
2013-02-16 19:57:00,38.3,38.3,29.83,NNW,345,13.0,18.0,100,0.01,,---,0.05,VWS V14.00,2013-02-17 00:57:00,
2013-02-16 20:02:00,38.2,38.2,29.83,NNW,343,13.0,17.0,100,0.01,,---,0.05,VWS V14.00,2013-02-17 01:02:00,
2013-02-16 20:07:00,37.9,37.9,29.82,North,359,11.0,19.0,100,0.01,,---,0.05,VWS V14.00,2013-02-17 01:07:00,
2013-02-16 20:12:00,37.8,37.8,29.82,North,349,15.0,19.0,100,0.01,,---,0.06,VWS V14.00,2013-02-17 01:12:00,
2013-02-16 20:17:00,37.7,37.7,29.81,North,7,8.0,19.0,100,0.01,,---,0.06,VWS V14.00,2013-02-17 01:17:00,
2013-02-16 20:22:00,37.5,37.5,29.80,North,9,13.0,19.0,100,0.01,,---,0.06,VWS V14.00,2013-02-17 01:22:00,
2013-02-16 20:27:00,37.5,37.5,29.80,North,7,13.0,19.0,100,0.01,,---,0.06,VWS V14.00,2013-02-17 01:27:00,
2013-02-16 20:32:00,37.4,37.4,29.80,NNE,17,12.0,15.0,100,0.01,,---,0.06,VWS V14.00,2013-02-17 01:32:00,
2013-02-16 20:37:00,37.3,37.3,29.80,North,3,18.0,19.0,100,0.01,,---,0.06,VWS V14.00,2013-02-17 01:37:00,
2013-02-16 20:42:00,37.4,37.4,29.80,North,8,12.0,20.0,100,0.01,,---,0.06,VWS V14.00,2013-02-17 01:42:00,
2013-02-16 20:47:00,37.4,37.4,29.82,North,5,16.0,20.0,100,0.01,,---,0.06,VWS V14.00,2013-02-17 01:47:00,
2013-02-16 20:52:00,37.5,37.5,29.82,North,1,15.0,20.0,100,0.01,,---,0.06,VWS V14.00,2013-02-17 01:52:00,
2013-02-16 20:57:00,37.5,37.5,29.82,NNE,15,12.0,20.0,100,0.01,,---,0.06,VWS V14.00,2013-02-17 01:57:00,
2013-02-16 21:02:00,37.5,37.5,29.82,North,353,16.0,19.0,100,0.01,,---,0.06,VWS V14.00,2013-02-17 02:02:00,
2013-02-16 21:07:00,37.5,37.5,29.84,NNW,337,15.0,19.0,100,0.01,,---,0.06,VWS V14.00,2013-02-17 02:07:00,
2013-02-16 21:12:00,37.5,37.5,29.84,NNW,341,16.0,19.0,100,0.01,,---,0.06,VWS V14.00,2013-02-17 02:12:00,
2013-02-16 21:17:00,37.5,37.5,29.84,NNW,329,15.0,19.0,100,0.01,,---,0.06,VWS V14.00,2013-02-17 02:17:00,
2013-02-16 21:22:00,37.5,37.5,29.85,NW,326,14.0,19.0,100,0.00,,---,0.06,VWS V14.00,2013-02-17 02:22:00,
2013-02-16 21:27:00,37.4,37.4,29.85,NW,322,14.0,19.0,100,0.00,,---,0.06,VWS V14.00,2013-02-17 02:27:00,
2013-02-16 21:32:00,37.4,37.4,29.86,NNW,327,16.0,18.0,100,0.00,,---,0.06,VWS V14.00,2013-02-17 02:32:00,
2013-02-16 21:37:00,37.5,37.5,29.86,NW,319,14.0,20.0,100,0.00,,---,0.06,VWS V14.00,2013-02-17 02:37:00,
2013-02-16 21:42:00,37.6,37.6,29.86,NW,312,13.0,20.0,100,0.00,,---,0.06,VWS V14.00,2013-02-17 02:42:00,
2013-02-16 21:47:00,37.6,37.6,29.87,NW,323,12.0,20.0,100,0.00,,---,0.06,VWS V14.00,2013-02-17 02:47:00,
2013-02-16 21:52:00,37.6,37.6,29.86,NNW,327,17.0,20.0,100,0.00,,---,0.06,VWS V14.00,2013-02-17 02:52:00,
2013-02-16 21:57:00,37.4,37.4,29.87,NNW,334,14.0,20.0,100,0.00,,---,0.06,VWS V14.00,2013-02-17 02:57:00,
2013-02-16 22:02:00,37.5,37.5,29.86,NNW,330,16.0,17.0,100,0.00,,---,0.06,VWS V14.00,2013-02-17 03:02:00,
2013-02-16 22:07:00,37.4,37.4,29.87,NW,325,14.0,17.0,100,0.00,,---,0.06,VWS V14.00,2013-02-17 03:07:00,
2013-02-16 22:12:00,37.4,37.4,29.87,NW,321,10.0,17.0,100,0.00,,---,0.06,VWS V14.00,2013-02-17 03:12:00,
2013-02-16 22:17:00,37.4,37.4,29.87,NNW,336,18.0,18.0,100,0.00,,---,0.06,VWS V14.00,2013-02-17 03:17:00,
2013-02-16 22:22:00,37.3,37.3,29.87,NW,311,14.0,18.0,100,0.00,,---,0.06,VWS V14.00,2013-02-17 03:22:00,
2013-02-16 22:27:00,37.4,37.4,29.87,NW,323,12.0,18.0,100,0.00,,---,0.06,VWS V14.00,2013-02-17 03:27:00,
2013-02-16 22:32:00,37.3,37.3,29.86,NNW,330,10.0,14.0,100,0.00,,---,0.06,VWS V14.00,2013-02-17 03:32:00,
2013-02-16 22:37:00,37.3,37.3,29.87,NNW,333,15.0,17.0,100,0.00,,---,0.06,VWS V14.00,2013-02-17 03:37:00,
2013-02-16 22:42:00,37.3,37.3,29.87,NNW,328,15.0,20.0,100,0.00,,---,0.06,VWS V14.00,2013-02-17 03:42:00,
2013-02-16 22:47:00,37.3,37.3,29.87,NW,325,13.0,20.0,100,0.00,,---,0.06,VWS V14.00,2013-02-17 03:47:00,
2013-02-16 22:52:00,37.2,37.2,29.87,NW,319,17.0,20.0,100,0.00,,---,0.06,VWS V14.00,2013-02-17 03:52:00,
2013-02-16 22:57:00,37.2,37.2,29.88,NW,316,13.0,20.0,100,0.00,,---,0.06,VWS V14.00,2013-02-17 03:57:00,
2013-02-16 23:02:00,37.2,37.2,29.88,NW,312,13.0,20.0,100,0.00,,---,0.06,VWS V14.00,2013-02-17 04:02:00,
2013-02-16 23:07:00,37.2,37.2,29.89,NW,310,17.0,20.0,100,0.00,,---,0.06,VWS V14.00,2013-02-17 04:07:00,
2013-02-16 23:12:00,37.3,37.3,29.89,NW,319,14.0,21.0,100,0.00,,---,0.06,VWS V14.00,2013-02-17 04:12:00,
2013-02-16 23:17:00,37.2,37.2,29.88,NNW,330,13.0,24.0,100,0.00,,---,0.06,VWS V14.00,2013-02-17 04:17:00,
2013-02-16 23:22:00,37.3,37.3,29.88,NNW,332,13.0,24.0,100,0.00,,---,0.06,VWS V14.00,2013-02-17 04:22:00,
2013-02-16 23:27:00,37.3,37.3,29.88,NW,324,13.0,24.0,100,0.00,,---,0.06,VWS V14.00,2013-02-17 04:27:00,
2013-02-16 23:32:00,37.2,37.2,29.88,NNW,333,16.0,17.0,100,0.00,,---,0.06,VWS V14.00,2013-02-17 04:32:00,
2013-02-16 23:37:00,37.1,37.1,29.88,NW,322,15.0,17.0,100,0.00,,---,0.06,VWS V14.00,2013-02-17 04:37:00,
2013-02-16 23:42:00,37.1,37.1,29.89,NW,314,15.0,17.0,100,0.00,,---,0.06,VWS V14.00,2013-02-17 04:42:00,
2013-02-16 23:47:00,37.1,37.1,29.90,NNW,329,13.0,18.0,100,0.00,,---,0.06,VWS V14.00,2013-02-17 04:47:00,
2013-02-16 23:52:00,37.2,37.2,29.90,NW,325,17.0,18.0,100,0.00,,---,0.06,VWS V14.00,2013-02-17 04:52:00,
2013-02-16 23:57:00,37.2,37.2,29.90,NNW,335,13.0,18.0,100,0.00,,---,0.06,VWS V14.00,2013-02-17 04:57:00,